createdAt,value
2022-09-15T00:01:15.480Z,51.54
2022-09-15T00:03:45.814Z,51.57
2022-09-15T00:06:16.036Z,51.50
2022-09-15T00:08:47.303Z,51.39
2022-09-15T00:11:22.380Z,51.39
2022-09-15T00:13:53.959Z,51.32
2022-09-15T00:16:28.934Z,51.34
2022-09-15T00:18:58.838Z,51.55
2022-09-15T00:21:32.656Z,51.88
2022-09-15T00:24:04.062Z,51.87
2022-09-15T00:26:34.516Z,51.58
2022-09-15T00:29:04.823Z,51.53
2022-09-15T00:31:37.314Z,51.77
2022-09-15T00:34:08.040Z,51.72
2022-09-15T00:36:38.046Z,51.88
2022-09-15T00:39:08.013Z,52.09
2022-09-15T00:41:37.880Z,52.11
2022-09-15T00:44:28.916Z,51.85
2022-09-15T00:47:18.679Z,52.19
2022-09-15T00:49:58.424Z,51.98
2022-09-15T00:52:35.125Z,51.90
2022-09-15T00:55:08.868Z,51.52
2022-09-15T00:57:42.831Z,51.76
2022-09-15T01:00:16.801Z,52.21
2022-09-15T01:02:50.929Z,51.94
2022-09-15T01:05:24.316Z,52.04
2022-09-15T01:07:57.832Z,52.15
2022-09-15T01:10:31.254Z,52.22
2022-09-15T01:13:05.137Z,52.19
2022-09-15T01:15:43.043Z,52.62
2022-09-15T01:18:23.385Z,52.48
2022-09-15T01:21:02.421Z,52.27
2022-09-15T01:24:07.280Z,52.81
2022-09-15T01:27:30.601Z,52.39
2022-09-15T01:30:12.946Z,52.79
2022-09-15T01:33:08.915Z,52.85
2022-09-15T01:35:59.060Z,52.69
2022-09-15T01:38:39.673Z,52.74
2022-09-15T01:41:17.784Z,52.69
2022-09-15T01:43:54.035Z,52.92
2022-09-15T01:46:29.086Z,53.15
2022-09-15T01:49:01.385Z,52.99
2022-09-15T01:51:34.114Z,53.11
2022-09-15T01:54:07.742Z,53.13
2022-09-15T01:56:41.991Z,53.01
2022-09-15T01:59:12.441Z,52.91
2022-09-15T02:01:52.253Z,53.21
2022-09-15T02:04:31.171Z,53.03
2022-09-15T02:07:06.594Z,53.28
2022-09-15T02:09:43.244Z,53.13
2022-09-15T02:12:20.031Z,53.31
2022-09-15T02:14:57.865Z,53.02
2022-09-15T02:17:32.816Z,53.44
2022-09-15T02:20:11.573Z,53.15
2022-09-15T02:22:44.080Z,53.45
2022-09-15T02:25:17.487Z,53.12
2022-09-15T02:27:50.325Z,53.09
2022-09-15T02:30:22.510Z,53.24
2022-09-15T02:32:58.985Z,53.26
2022-09-15T02:35:31.303Z,52.96
2022-09-15T02:38:02.890Z,53.45
2022-09-15T02:40:33.951Z,53.22
2022-09-15T02:43:05.964Z,52.99
2022-09-15T02:45:36.262Z,53.01
2022-09-15T02:48:09.523Z,52.91
2022-09-15T02:50:39.746Z,53.06
2022-09-15T02:53:10.557Z,53.06
2022-09-15T02:55:40.410Z,52.97
2022-09-15T02:58:10.905Z,52.82
2022-09-15T03:00:42.832Z,52.80
2022-09-15T03:03:15.809Z,52.90
2022-09-15T03:05:46.308Z,52.90
2022-09-15T03:08:16.820Z,53.11
2022-09-15T03:10:46.592Z,53.04
2022-09-15T03:13:16.454Z,53.01
2022-09-15T03:15:46.208Z,53.17
2022-09-15T03:18:21.631Z,53.43
2022-09-15T03:20:51.579Z,53.17
2022-09-15T03:23:21.638Z,53.18
2022-09-15T03:25:53.313Z,53.34
2022-09-15T03:28:23.117Z,53.08
2022-09-15T03:30:53.002Z,53.15
2022-09-15T03:33:26.152Z,53.12
2022-09-15T03:35:57.214Z,53.30
2022-09-15T03:38:27.160Z,52.77
2022-09-15T03:41:05.056Z,52.76
2022-09-15T03:43:35.422Z,52.74
2022-09-15T03:46:08.298Z,52.89
2022-09-15T03:48:44.020Z,52.80
2022-09-15T03:51:14.718Z,52.56
2022-09-15T03:53:46.177Z,52.79
2022-09-15T03:56:24.311Z,52.95
2022-09-15T03:58:55.384Z,53.15
2022-09-15T04:01:26.210Z,53.34
2022-09-15T04:03:59.694Z,53.15
2022-09-15T04:06:32.822Z,53.52
2022-09-15T04:09:03.108Z,53.60
2022-09-15T04:11:34.102Z,53.27
2022-09-15T04:14:04.076Z,53.46
2022-09-15T04:16:34.047Z,53.61
2022-09-15T04:19:07.558Z,53.61
2022-09-15T04:21:37.601Z,53.64
2022-09-15T04:24:08.274Z,53.67
2022-09-15T04:26:39.989Z,53.60
2022-09-15T04:29:17.683Z,53.92
2022-09-15T04:31:48.859Z,53.92
2022-09-15T04:34:21.560Z,54.37
2022-09-15T04:36:51.478Z,54.19
2022-09-15T04:39:21.285Z,54.10
2022-09-15T04:41:51.154Z,54.20
2022-09-15T04:44:23.965Z,54.43
2022-09-15T04:46:57.701Z,54.28
2022-09-15T04:49:31.901Z,54.54
2022-09-15T04:52:01.853Z,54.24
2022-09-15T04:54:31.858Z,54.33
2022-09-15T04:57:01.745Z,54.42
2022-09-15T04:59:31.879Z,54.48
2022-09-15T05:02:02.427Z,54.49
2022-09-15T05:04:35.045Z,54.49
2022-09-15T05:07:05.079Z,54.39
2022-09-15T05:09:34.831Z,54.57
2022-09-15T05:12:05.042Z,54.54
2022-09-15T05:14:35.668Z,54.64
2022-09-15T05:17:05.824Z,54.64
2022-09-15T05:19:38.675Z,54.51
2022-09-15T05:22:08.619Z,54.54
2022-09-15T05:24:41.327Z,54.46
2022-09-15T05:27:11.463Z,54.24
2022-09-15T05:29:41.227Z,53.96
2022-09-15T05:32:11.011Z,53.75
2022-09-15T05:34:43.829Z,53.80
2022-09-15T05:37:14.413Z,53.63
2022-09-15T05:39:44.314Z,53.43
2022-09-15T05:42:14.349Z,53.30
2022-09-15T05:44:44.185Z,53.10
2022-09-15T05:47:14.303Z,52.77
2022-09-15T05:49:46.903Z,52.60
2022-09-15T05:52:16.803Z,52.73
2022-09-15T05:54:46.980Z,52.59
2022-09-15T05:57:16.777Z,52.52
2022-09-15T05:59:46.598Z,52.19
2022-09-15T06:02:16.919Z,52.50
2022-09-15T06:04:49.395Z,51.94
2022-09-15T06:07:19.664Z,51.72
2022-09-15T06:09:49.919Z,51.97
2022-09-15T06:12:20.478Z,51.55
2022-09-15T06:14:51.190Z,50.91
2022-09-15T06:17:22.388Z,51.24
2022-09-15T06:19:55.273Z,50.68
2022-09-15T06:22:25.869Z,50.26
2022-09-15T06:24:55.781Z,50.59
2022-09-15T06:27:25.927Z,50.90
2022-09-15T06:29:55.829Z,51.30
2022-09-15T06:32:25.731Z,50.95
2022-09-15T06:34:58.317Z,50.96
2022-09-15T06:37:28.483Z,50.91
2022-09-15T06:39:58.650Z,50.47
2022-09-15T06:42:28.712Z,50.56
2022-09-15T06:44:58.984Z,49.98
2022-09-15T06:47:33.893Z,49.71
2022-09-15T06:50:07.073Z,49.93
2022-09-15T06:52:37.280Z,49.18
2022-09-15T06:55:08.237Z,49.61
2022-09-15T06:57:38.496Z,49.46
2022-09-15T07:00:10.336Z,49.37
2022-09-15T07:02:40.505Z,48.94
2022-09-15T07:05:14.259Z,48.94
2022-09-15T07:07:44.068Z,48.97
2022-09-15T07:10:14.098Z,49.40
2022-09-15T07:12:46.246Z,49.07
2022-09-15T07:15:16.269Z,48.78
2022-09-15T07:17:46.058Z,49.33
2022-09-15T07:20:19.154Z,49.09
2022-09-15T07:22:49.428Z,48.94
2022-09-15T07:25:19.611Z,49.53
2022-09-15T07:27:49.774Z,49.35
2022-09-15T07:30:19.850Z,48.95
2022-09-15T07:32:49.824Z,49.15
2022-09-15T07:35:22.609Z,49.56
2022-09-15T07:37:52.433Z,49.62
2022-09-15T07:40:22.367Z,49.23
2022-09-15T07:42:52.246Z,49.20
2022-09-15T07:45:22.345Z,49.55
2022-09-15T07:47:52.311Z,49.54
2022-09-15T07:50:25.228Z,49.04
2022-09-15T07:52:58.227Z,48.63
2022-09-15T07:55:30.440Z,49.38
2022-09-15T07:58:01.199Z,48.66
2022-09-15T08:00:31.864Z,48.72
2022-09-15T08:03:02.402Z,49.34
2022-09-15T08:05:39.453Z,49.18
2022-09-15T08:08:11.415Z,48.70
2022-09-15T08:10:42.717Z,48.61
2022-09-15T08:13:13.213Z,48.45
2022-09-15T08:15:46.306Z,48.80
2022-09-15T08:18:31.454Z,48.98
2022-09-15T08:21:07.378Z,49.13
2022-09-15T08:23:38.423Z,49.31
2022-09-15T08:26:13.626Z,49.04
2022-09-15T08:28:47.424Z,48.74
2022-09-15T08:31:18.602Z,48.73
2022-09-15T08:33:51.823Z,48.72
2022-09-15T08:36:28.194Z,47.71
2022-09-15T08:38:58.884Z,48.25
2022-09-15T08:41:32.607Z,48.52
2022-09-15T08:44:16.238Z,48.10
2022-09-15T08:46:53.887Z,47.74
2022-09-15T08:49:47.803Z,47.68
2022-09-15T08:52:26.014Z,48.15
2022-09-15T08:54:58.995Z,47.48
2022-09-15T08:57:29.285Z,47.11
2022-09-15T08:59:59.690Z,48.03
2022-09-15T09:02:49.451Z,47.60
2022-09-15T09:05:33.055Z,47.82
2022-09-15T09:08:33.989Z,47.89
2022-09-15T09:11:13.914Z,47.22
2022-09-15T09:13:50.162Z,47.57
2022-09-15T09:16:45.440Z,47.10
2022-09-15T09:19:33.774Z,47.57
2022-09-15T09:22:11.276Z,46.76
2022-09-15T09:24:47.124Z,45.92
2022-09-15T09:27:20.879Z,45.57
2022-09-15T09:29:53.127Z,45.23
2022-09-15T09:32:27.481Z,45.75
2022-09-15T09:35:03.936Z,45.97
2022-09-15T09:37:36.302Z,45.66
2022-09-15T09:40:10.525Z,45.67
2022-09-15T09:42:40.998Z,44.29
2022-09-15T09:45:16.247Z,43.94
2022-09-15T09:47:48.203Z,44.10
2022-09-15T09:50:35.042Z,43.88
2022-09-15T09:53:21.654Z,43.19
2022-09-15T09:55:55.643Z,43.86
2022-09-15T09:58:28.231Z,44.01
2022-09-15T10:01:13.122Z,43.80
2022-09-15T10:03:45.668Z,43.36
2022-09-15T10:06:18.674Z,43.41
2022-09-15T10:08:58.902Z,43.72
2022-09-15T10:11:48.598Z,43.45
2022-09-15T10:14:29.445Z,42.72
2022-09-15T10:17:04.890Z,40.74
2022-09-15T10:19:39.079Z,40.82
2022-09-15T10:22:09.019Z,41.42
2022-09-15T10:24:42.662Z,41.31
2022-09-15T10:27:28.784Z,40.84
2022-09-15T10:30:01.738Z,40.43
2022-09-15T10:32:33.305Z,40.45
2022-09-15T10:35:06.437Z,41.24
2022-09-15T10:37:46.818Z,40.34
2022-09-15T10:40:35.790Z,40.19
2022-09-15T10:43:27.535Z,40.18
2022-09-15T10:46:05.203Z,38.80
2022-09-15T10:49:04.599Z,38.16
2022-09-15T10:51:47.004Z,35.38
2022-09-15T10:54:51.221Z,34.06
2022-09-15T10:57:39.023Z,33.15
2022-09-15T11:00:15.218Z,31.88
2022-09-15T11:03:16.161Z,31.67
2022-09-15T11:05:56.320Z,31.04
2022-09-15T11:08:59.635Z,31.27
2022-09-15T11:11:43.355Z,30.01
2022-09-15T11:14:30.259Z,29.42
2022-09-15T11:17:17.862Z,28.90
2022-09-15T11:20:12.465Z,29.80
2022-09-15T11:22:51.059Z,29.90
2022-09-15T11:25:24.469Z,30.18
2022-09-15T11:27:58.400Z,31.26
2022-09-15T11:30:36.095Z,32.01
2022-09-15T11:33:15.090Z,32.43
2022-09-15T11:35:49.231Z,31.90
2022-09-15T11:38:37.230Z,32.86
2022-09-15T11:41:21.348Z,32.73
2022-09-15T11:44:06.220Z,32.61
2022-09-15T11:46:57.484Z,30.59
2022-09-15T11:49:34.659Z,31.14
2022-09-15T11:52:11.077Z,31.07
2022-09-15T11:54:48.077Z,29.43
2022-09-15T11:57:23.602Z,28.22
2022-09-15T12:00:00.554Z,29.29
2022-09-15T12:02:35.954Z,30.27
2022-09-15T12:05:15.163Z,31.90
2022-09-15T12:07:51.526Z,33.15
2022-09-15T12:10:26.351Z,33.98
2022-09-15T12:13:00.657Z,34.31
2022-09-15T12:15:31.331Z,35.19
2022-09-15T12:18:37.134Z,35.77
2022-09-15T12:21:18.910Z,36.25
2022-09-15T12:23:58.198Z,36.12
2022-09-15T12:26:30.109Z,36.39
2022-09-15T12:29:02.583Z,36.63
2022-09-15T12:31:40.484Z,36.66
2022-09-15T12:34:38.585Z,35.20
2022-09-15T12:37:16.736Z,32.53
2022-09-15T12:39:48.696Z,31.47
2022-09-15T12:42:23.646Z,30.72
2022-09-15T12:44:56.483Z,30.78
2022-09-15T12:47:41.139Z,32.03
2022-09-15T12:50:27.503Z,32.70
2022-09-15T12:53:02.745Z,32.56
2022-09-15T12:55:38.012Z,32.17
2022-09-15T12:58:12.612Z,32.64
2022-09-15T13:04:04.832Z,33.23
2022-09-15T13:06:36.236Z,33.41
2022-09-15T13:09:31.596Z,33.05
2022-09-15T13:12:02.809Z,34.25
2022-09-15T13:14:42.289Z,34.54
2022-09-15T13:17:22.808Z,35.43
2022-09-15T13:19:57.664Z,34.99
2022-09-15T13:22:33.499Z,36.02
2022-09-15T13:25:17.410Z,35.91
2022-09-15T13:27:50.496Z,36.80
2022-09-15T13:30:40.497Z,36.43
2022-09-15T13:35:03.184Z,36.18
2022-09-15T13:39:54.433Z,35.69
2022-09-15T13:42:51.934Z,35.15
2022-09-15T13:45:40.743Z,35.25
2022-09-15T13:51:03.912Z,34.94
2022-09-15T13:53:46.221Z,35.57
2022-09-15T13:56:22.554Z,35.65
2022-09-15T13:58:59.907Z,35.74
2022-09-15T14:01:39.020Z,36.07
2022-09-15T14:04:14.869Z,36.04
2022-09-15T14:06:47.486Z,36.08
2022-09-15T14:09:21.318Z,35.70
2022-09-15T14:11:55.413Z,35.78
2022-09-15T14:14:40.068Z,36.33
2022-09-15T14:17:22.628Z,36.97
2022-09-15T14:19:54.534Z,36.22
2022-09-15T14:22:29.066Z,36.67
2022-09-15T14:25:00.193Z,36.95
2022-09-15T14:27:32.244Z,37.42
2022-09-15T14:30:07.913Z,37.05
2022-09-15T14:32:42.235Z,37.41
2022-09-15T14:35:20.121Z,37.15
2022-09-15T14:37:51.947Z,37.15
2022-09-15T14:40:27.325Z,36.85
2022-09-15T14:42:58.420Z,36.41
2022-09-15T14:48:31.087Z,35.63
2022-09-15T14:51:05.456Z,36.66
2022-09-15T14:53:39.398Z,36.34
2022-09-15T14:56:18.235Z,36.50
2022-09-15T14:58:53.264Z,36.81
2022-09-15T15:01:30.753Z,36.99
2022-09-15T15:04:10.322Z,38.72
2022-09-15T15:06:43.993Z,37.85
2022-09-15T15:09:25.617Z,37.46
2022-09-15T15:12:01.773Z,37.34
2022-09-15T15:14:31.903Z,37.58
2022-09-15T15:17:07.063Z,38.02
2022-09-15T15:19:39.687Z,37.94
2022-09-15T15:22:17.425Z,37.54
2022-09-15T15:24:50.213Z,37.43
2022-09-15T15:27:41.828Z,38.28
2022-09-15T15:30:37.068Z,37.76
2022-09-15T15:33:22.049Z,37.49
2022-09-15T15:36:04.871Z,37.50
2022-09-15T15:38:38.030Z,37.70
2022-09-15T15:41:10.858Z,39.02
2022-09-15T15:43:40.781Z,38.95
2022-09-15T15:46:12.649Z,39.93
2022-09-15T15:48:45.287Z,39.59
2022-09-15T15:51:15.144Z,40.02
2022-09-15T15:53:45.220Z,40.23
2022-09-15T15:56:16.082Z,41.26
2022-09-15T15:58:45.972Z,42.54
2022-09-15T16:01:15.928Z,41.99
2022-09-15T16:03:48.347Z,41.53
2022-09-15T16:06:18.338Z,41.40
2022-09-15T16:08:49.107Z,42.26
2022-09-15T16:11:20.983Z,40.83
2022-09-15T16:13:51.068Z,40.88
2022-09-15T16:16:22.771Z,41.34
2022-09-15T16:18:55.673Z,41.06
2022-09-15T16:21:32.472Z,40.86
2022-09-15T16:24:02.566Z,40.47
2022-09-15T16:26:34.604Z,40.20
2022-09-15T16:29:04.777Z,39.23
2022-09-15T16:31:36.410Z,38.79
2022-09-15T16:34:09.043Z,39.80
2022-09-15T16:36:39.066Z,39.43
2022-09-15T16:39:09.081Z,39.38
2022-09-15T16:41:40.386Z,39.06
2022-09-15T16:44:20.596Z,38.59
2022-09-15T16:46:50.554Z,39.75
2022-09-15T16:49:23.156Z,38.90
2022-09-15T16:51:53.078Z,38.78
2022-09-15T16:54:23.631Z,39.05
2022-09-15T16:56:54.135Z,39.32
2022-09-15T16:59:24.031Z,39.55
2022-09-15T17:01:54.163Z,40.23
2022-09-15T17:04:27.361Z,40.25
2022-09-15T17:06:57.235Z,39.68
2022-09-15T17:09:27.564Z,39.96
2022-09-15T17:11:58.514Z,40.36
2022-09-15T17:14:28.324Z,40.34
2022-09-15T17:16:58.393Z,40.03
2022-09-15T17:19:33.224Z,40.34
2022-09-15T17:22:04.884Z,40.83
2022-09-15T17:24:34.728Z,41.12
2022-09-15T17:27:04.786Z,41.05
2022-09-15T17:29:34.937Z,40.76
2022-09-15T17:32:05.821Z,40.54
2022-09-15T17:34:39.085Z,40.28
2022-09-15T17:37:09.446Z,40.54
2022-09-15T17:39:40.889Z,40.36
2022-09-15T17:42:12.468Z,40.19
2022-09-15T17:44:42.535Z,40.16
2022-09-15T17:47:15.725Z,40.66
2022-09-15T17:49:48.470Z,40.68
2022-09-15T17:52:18.561Z,41.46
2022-09-15T17:54:48.359Z,40.80
2022-09-15T17:57:18.168Z,41.36
2022-09-15T17:59:48.358Z,40.80
2022-09-15T18:02:21.464Z,41.07
2022-09-15T18:04:54.175Z,41.46
2022-09-15T18:07:25.405Z,41.32
2022-09-15T18:09:58.364Z,41.70
2022-09-15T18:12:28.497Z,41.87
2022-09-15T18:14:58.956Z,41.56
2022-09-15T18:17:28.949Z,41.39
2022-09-15T18:20:05.027Z,41.02
2022-09-15T18:22:35.156Z,41.00
2022-09-15T18:25:05.225Z,41.41
2022-09-15T18:27:36.103Z,41.24
2022-09-15T18:30:06.669Z,41.20
2022-09-15T18:32:39.566Z,41.75
2022-09-15T18:35:18.599Z,41.95
2022-09-15T18:37:49.598Z,41.62
2022-09-15T18:40:21.667Z,42.55
2022-09-15T18:42:51.525Z,42.72
2022-09-15T18:45:22.249Z,42.85
2022-09-15T18:47:56.527Z,43.04
2022-09-15T18:50:28.916Z,42.87
2022-09-15T18:53:02.335Z,42.74
2022-09-15T18:55:32.702Z,43.49
2022-09-15T18:58:02.835Z,43.26
2022-09-15T19:00:33.091Z,43.47
2022-09-15T19:03:27.205Z,43.66
2022-09-15T19:06:05.267Z,43.68
2022-09-15T19:08:40.332Z,43.90
2022-09-15T19:11:10.804Z,44.08
2022-09-15T19:13:42.953Z,44.44
2022-09-15T19:16:12.927Z,44.49
2022-09-15T19:18:44.954Z,44.54
2022-09-15T19:21:17.535Z,44.31
2022-09-15T19:23:49.987Z,44.95
2022-09-15T19:26:20.607Z,44.90
2022-09-15T19:28:55.865Z,45.23
2022-09-15T19:31:26.823Z,45.12
2022-09-15T19:33:57.130Z,45.37
2022-09-15T19:36:29.750Z,45.21
2022-09-15T19:39:02.825Z,45.44
2022-09-15T19:41:37.798Z,45.14
2022-09-15T19:44:10.655Z,45.45
2022-09-15T19:46:41.445Z,45.18
2022-09-15T19:49:11.675Z,45.51
2022-09-15T19:51:44.932Z,45.08
2022-09-15T19:54:15.775Z,45.16
2022-09-15T19:56:46.240Z,44.85
2022-09-15T19:59:16.085Z,45.10
2022-09-15T20:02:05.062Z,45.32
2022-09-15T20:04:34.829Z,45.70
2022-09-15T20:07:07.704Z,45.77
2022-09-15T20:09:40.750Z,45.55
2022-09-15T20:12:10.814Z,45.69
2022-09-15T20:14:40.769Z,45.97
2022-09-15T20:17:13.674Z,45.63
2022-09-15T20:19:43.741Z,45.15
2022-09-15T20:22:16.461Z,45.24
2022-09-15T20:24:46.375Z,45.78
2022-09-15T20:27:16.700Z,45.29
2022-09-15T20:29:46.558Z,45.35
2022-09-15T20:32:17.456Z,45.35
2022-09-15T20:34:47.258Z,45.27
2022-09-15T20:37:22.426Z,45.25
2022-09-15T20:39:52.496Z,45.52
2022-09-15T20:42:22.331Z,45.49
2022-09-15T20:44:54.593Z,45.11
2022-09-15T20:47:24.526Z,45.28
2022-09-15T20:49:54.947Z,44.65
2022-09-15T20:52:29.685Z,44.84
2022-09-15T20:54:59.602Z,44.74
2022-09-15T20:57:29.397Z,44.83
2022-09-15T20:59:59.268Z,45.29
2022-09-15T21:02:29.046Z,44.54
2022-09-15T21:04:59.074Z,44.71
2022-09-15T21:07:31.951Z,44.59
2022-09-15T21:10:01.987Z,44.55
2022-09-15T21:12:32.044Z,44.81
2022-09-15T21:15:05.712Z,44.53
2022-09-15T21:17:36.201Z,44.75
2022-09-15T21:20:08.896Z,44.76
2022-09-15T21:22:41.585Z,44.81
2022-09-15T21:25:11.759Z,45.11
2022-09-15T21:27:42.450Z,45.26
2022-09-15T21:30:14.798Z,45.36
2022-09-15T21:32:45.012Z,45.32
2022-09-15T21:35:15.331Z,45.46
2022-09-15T21:37:48.167Z,45.92
2022-09-15T21:40:18.576Z,45.88
2022-09-15T21:42:48.444Z,46.17
2022-09-15T21:45:18.435Z,46.45
2022-09-15T21:47:48.215Z,46.39
2022-09-15T21:50:19.049Z,46.83
2022-09-15T21:52:51.583Z,46.51
2022-09-15T21:55:21.599Z,46.82
2022-09-15T21:57:51.489Z,46.84
2022-09-15T22:00:21.334Z,47.21
2022-09-15T22:02:54.151Z,47.44
2022-09-15T22:05:23.971Z,47.77
2022-09-15T22:08:00.417Z,47.10
2022-09-15T22:10:32.999Z,47.12
2022-09-15T22:13:03.198Z,47.27
2022-09-15T22:15:33.547Z,47.23
2022-09-15T22:18:04.045Z,47.30
2022-09-15T22:20:34.131Z,47.14
2022-09-15T22:23:06.822Z,47.18
2022-09-15T22:25:36.779Z,47.08
2022-09-15T22:28:06.766Z,46.92
2022-09-15T22:30:37.077Z,47.11
2022-09-15T22:33:07.226Z,47.07
2022-09-15T22:35:37.271Z,47.03
2022-09-15T22:38:09.911Z,47.02
2022-09-15T22:40:39.848Z,47.01
2022-09-15T22:43:09.673Z,47.06
2022-09-15T22:45:39.483Z,47.04
2022-09-15T22:48:09.774Z,47.24
2022-09-15T22:50:39.720Z,47.40
2022-09-15T22:53:15.695Z,47.14
2022-09-15T22:55:45.485Z,47.15
2022-09-15T22:58:15.582Z,46.95
2022-09-15T23:00:45.914Z,46.86
2022-09-15T23:03:16.046Z,47.19
2022-09-15T23:05:45.938Z,47.17
2022-09-15T23:08:18.642Z,46.97
2022-09-15T23:10:49.104Z,46.83
2022-09-15T23:13:20.271Z,47.39
2022-09-15T23:15:51.945Z,47.39
2022-09-15T23:18:21.974Z,47.28
2022-09-15T23:20:57.868Z,47.28
2022-09-15T23:23:34.216Z,47.64
2022-09-15T23:28:49.306Z,47.58
2022-09-15T23:31:22.311Z,47.70
2022-09-15T23:33:52.460Z,47.74
2022-09-15T23:36:22.547Z,47.19
2022-09-15T23:38:55.134Z,47.23
2022-09-15T23:41:25.119Z,47.69
2022-09-15T23:43:55.977Z,47.79
2022-09-15T23:46:25.934Z,47.34
2022-09-15T23:48:55.862Z,47.64
2022-09-15T23:51:27.414Z,47.93
2022-09-15T23:54:02.186Z,47.62
2022-09-15T23:56:33.868Z,47.39
2022-09-15T23:59:03.941Z,47.37
